Terminal Aerodrome Forecast
Issued by NWS Dodge City, KS

Home | Current Version | Previous Version | Text Only | Print | Product List | Glossary On
Versions: 1 2 3 4 5 6 7 8 9 10 11 12 13 14 15 16 17 18 19 20 21 22 23 24 25 26 27 28 29 30 31 32 33 34 35 36
000
FTUS43 KDDC 181120
TAFDDC
TAF
KDDC 181120Z 1812/1912 18008KT 1SM BR OVC004
      TEMPO 1812/1815 1/4SM FG VV002
     FM181500 17010KT P6SM SCT020
      TEMPO 1821/1901 5SM -TSRA OVC030CB
     FM190100 14006KT P6SM SCT250=

USA.gov is the U.S. government's official web portal to all federal, state and local government web resources and services.